Time,TemperatureF,DewpointF,PressureIn,WindDirection,WindDirectionDegrees,WindSpeedMPH,WindSpeedGustMPH,Humidity,HourlyPrecipIn,Conditions,Clouds,dailyrainin,SolarRadiationWatts/m^2,SoftwareType,DateUTC
2013-01-11 00:01:00,32.0,32.0,-100.00,North,359,0.0,0.0,100,0.00,,,0.00,0.000000,,2013-01-11 08:01:00,
2013-01-11 00:32:00,32.0,32.0,-100.00,North,359,0.0,0.0,100,0.00,,,0.00,0.000000,,2013-01-11 08:32:00,
2013-01-11 00:42:00,32.0,32.0,-100.00,North,359,0.0,0.0,100,0.00,,,0.00,0.000000,,2013-01-11 08:42:00,
2013-01-11 00:52:00,32.0,32.0,-100.00,North,359,0.0,0.0,100,0.00,,,0.00,0.000000,,2013-01-11 08:52:00,
2013-01-11 01:01:00,32.0,32.0,-100.00,NNE,15,0.0,0.0,100,0.00,,,0.00,0.000000,,2013-01-11 09:01:00,
2013-01-11 01:32:00,32.0,32.0,-100.00,NNE,15,0.0,0.0,100,0.00,,,0.00,0.000000,,2013-01-11 09:32:00,
2013-01-11 01:42:00,32.0,32.0,-100.00,NNE,15,0.0,0.0,100,0.00,,,0.00,0.000000,,2013-01-11 09:42:00,
2013-01-11 01:52:00,32.0,32.0,-100.00,NNE,15,0.0,0.0,100,0.00,,,0.00,0.000000,,2013-01-11 09:52:00,
2013-01-11 02:01:00,31.0,31.0,-100.00,NNE,27,0.0,0.0,100,0.00,,,0.00,0.000000,,2013-01-11 10:01:00,
2013-01-11 02:32:00,31.0,31.0,-100.00,NNE,27,0.0,0.0,100,0.00,,,0.00,0.000000,,2013-01-11 10:32:00,
2013-01-11 02:42:00,31.0,31.0,-100.00,NNE,27,0.0,0.0,100,0.00,,,0.00,0.000000,,2013-01-11 10:42:00,
2013-01-11 02:52:00,31.0,31.0,-100.00,NNE,27,0.0,0.0,100,0.00,,,0.00,0.000000,,2013-01-11 10:52:00,
2013-01-11 03:01:00,30.0,30.0,-100.00,West,273,0.0,0.0,100,0.00,,,0.00,0.000000,,2013-01-11 11:01:00,
2013-01-11 03:22:00,30.0,30.0,-100.00,West,273,0.0,0.0,100,0.00,,,0.00,0.000000,,2013-01-11 11:22:00,
2013-01-11 03:33:00,30.0,30.0,-100.00,West,273,0.0,0.0,100,0.00,,,0.00,0.000000,,2013-01-11 11:33:00,
2013-01-11 03:43:00,30.0,30.0,-100.00,West,273,0.0,0.0,100,0.00,,,0.00,0.000000,,2013-01-11 11:43:00,
2013-01-11 03:53:00,30.0,30.0,-100.00,West,273,0.0,0.0,100,0.00,,,0.00,0.000000,,2013-01-11 11:53:00,
2013-01-11 04:01:00,30.0,30.0,-100.00,SSE,163,0.0,0.0,100,0.00,,,-99.99,0.000000,,2013-01-11 12:01:00,
2013-01-11 04:23:00,30.0,30.0,-100.00,SSE,163,0.0,0.0,100,0.00,,,-99.99,0.000000,,2013-01-11 12:23:00,
2013-01-11 04:33:00,30.0,30.0,-100.00,SSE,163,0.0,0.0,100,0.00,,,-99.99,0.000000,,2013-01-11 12:33:00,
2013-01-11 04:43:00,30.0,30.0,-100.00,SSE,163,0.0,0.0,100,0.00,,,-99.99,0.000000,,2013-01-11 12:43:00,
2013-01-11 04:53:00,30.0,30.0,-100.00,SSE,163,0.0,0.0,100,0.00,,,-99.99,0.000000,,2013-01-11 12:53:00,
2013-01-11 05:01:00,29.0,29.0,-100.00,NE,36,0.0,0.0,99,0.00,,,-99.99,0.000000,,2013-01-11 13:01:00,
2013-01-11 05:22:00,29.0,29.0,-100.00,NE,36,0.0,0.0,99,0.00,,,-99.99,0.000000,,2013-01-11 13:22:00,
2013-01-11 05:33:00,29.0,29.0,-100.00,NE,36,0.0,0.0,99,0.00,,,-99.99,0.000000,,2013-01-11 13:33:00,
2013-01-11 05:43:00,29.0,29.0,-100.00,NE,36,0.0,0.0,99,0.00,,,-99.99,0.000000,,2013-01-11 13:43:00,
2013-01-11 05:52:00,29.0,29.0,-100.00,NE,36,0.0,0.0,99,0.00,,,-99.99,0.000000,,2013-01-11 13:52:00,
2013-01-11 06:01:00,25.0,25.0,-100.00,NE,40,0.0,0.0,100,0.00,,,0.00,0.000000,,2013-01-11 14:01:00,
2013-01-11 06:33:00,25.0,25.0,-100.00,NE,40,0.0,0.0,100,0.00,,,0.00,0.000000,,2013-01-11 14:33:00,
2013-01-11 06:43:00,25.0,25.0,-100.00,NE,40,0.0,0.0,100,0.00,,,0.00,0.000000,,2013-01-11 14:43:00,
2013-01-11 06:53:00,25.0,25.0,-100.00,NE,40,0.0,0.0,100,0.00,,,0.00,0.000000,,2013-01-11 14:53:00,
2013-01-11 07:01:00,25.0,25.0,-100.00,NE,41,0.0,0.0,99,0.00,,,0.00,0.000000,,2013-01-11 15:01:00,
2013-01-11 07:23:00,25.0,25.0,-100.00,NE,41,0.0,0.0,99,0.00,,,0.00,0.000000,,2013-01-11 15:23:00,
2013-01-11 07:33:00,25.0,25.0,-100.00,NE,41,0.0,0.0,99,0.00,,,0.00,0.000000,,2013-01-11 15:33:00,
2013-01-11 07:43:00,25.0,25.0,-100.00,NE,41,0.0,0.0,99,0.00,,,0.00,0.000000,,2013-01-11 15:43:00,
2013-01-11 07:53:00,25.0,25.0,-100.00,NE,41,0.0,0.0,99,0.00,,,0.00,0.000000,,2013-01-11 15:53:00,
2013-01-11 08:01:00,23.0,23.0,-100.00,NE,37,0.0,0.0,99,0.00,,,-99.99,0.000000,,2013-01-11 16:01:00,
2013-01-11 08:33:00,23.0,23.0,-100.00,NE,37,0.0,0.0,99,0.00,,,-99.99,0.000000,,2013-01-11 16:33:00,
2013-01-11 08:43:00,23.0,23.0,-100.00,NE,37,0.0,0.0,99,0.00,,,-99.99,0.000000,,2013-01-11 16:43:00,
2013-01-11 08:53:00,23.0,23.0,-100.00,NE,37,0.0,0.0,99,0.00,,,-99.99,0.000000,,2013-01-11 16:53:00,
2013-01-11 09:01:00,23.0,23.0,-100.00,NNE,33,0.0,2.0,99,0.00,,,0.00,1.000000,,2013-01-11 17:01:00,
2013-01-11 09:33:00,23.0,23.0,-100.00,NNE,33,0.0,2.0,99,0.00,,,0.00,1.000000,,2013-01-11 17:33:00,
2013-01-11 09:43:00,23.0,23.0,-100.00,NNE,33,0.0,2.0,99,0.00,,,0.00,1.000000,,2013-01-11 17:43:00,
2013-01-11 09:53:00,23.0,23.0,-100.00,NNE,33,0.0,2.0,99,0.00,,,0.00,1.000000,,2013-01-11 17:53:00,
2013-01-11 10:01:00,25.0,25.0,-100.00,NE,38,0.0,2.0,98,0.00,,,-99.99,50.000000,,2013-01-11 18:01:00,
2013-01-11 10:33:00,25.0,25.0,-100.00,NE,38,0.0,2.0,98,0.00,,,-99.99,50.000000,,2013-01-11 18:33:00,
2013-01-11 10:43:00,25.0,25.0,-100.00,NE,38,0.0,2.0,98,0.00,,,-99.99,50.000000,,2013-01-11 18:43:00,
2013-01-11 10:53:00,25.0,25.0,-100.00,NE,38,0.0,2.0,98,0.00,,,-99.99,50.000000,,2013-01-11 18:53:00,
2013-01-11 11:01:00,25.0,24.0,-100.00,North,352,0.0,2.0,97,0.00,,,-99.99,145.000000,,2013-01-11 19:01:00,
2013-01-11 11:23:00,25.0,24.0,-100.00,North,352,0.0,2.0,97,0.00,,,-99.99,145.000000,,2013-01-11 19:23:00,
2013-01-11 11:33:00,25.0,24.0,-100.00,North,352,0.0,2.0,97,0.00,,,-99.99,145.000000,,2013-01-11 19:33:00,
2013-01-11 11:43:00,25.0,24.0,-100.00,North,352,0.0,2.0,97,0.00,,,-99.99,145.000000,,2013-01-11 19:43:00,
2013-01-11 11:53:00,25.0,24.0,-100.00,North,352,0.0,2.0,97,0.00,,,-99.99,145.000000,,2013-01-11 19:53:00,
2013-01-11 12:01:00,25.0,24.0,-100.00,NNE,33,0.0,2.0,96,0.00,,,0.00,266.000000,,2013-01-11 20:01:00,
2013-01-11 12:33:00,25.0,24.0,-100.00,NNE,33,0.0,2.0,96,0.00,,,0.00,266.000000,,2013-01-11 20:33:00,
2013-01-11 12:43:00,25.0,24.0,-100.00,NNE,33,0.0,2.0,96,0.00,,,0.00,266.000000,,2013-01-11 20:43:00,
2013-01-11 12:53:00,25.0,24.0,-100.00,NNE,33,0.0,2.0,96,0.00,,,0.00,266.000000,,2013-01-11 20:53:00,
2013-01-11 13:01:00,26.0,25.0,-100.00,NE,41,0.0,3.0,97,0.00,,,0.00,347.000000,,2013-01-11 21:01:00,
2013-01-11 13:33:00,26.0,25.0,-100.00,NE,41,0.0,3.0,97,0.00,,,0.00,347.000000,,2013-01-11 21:33:00,
2013-01-11 13:43:00,26.0,25.0,-100.00,NE,41,0.0,3.0,97,0.00,,,0.00,347.000000,,2013-01-11 21:43:00,
2013-01-11 13:53:00,26.0,25.0,-100.00,NE,41,0.0,3.0,97,0.00,,,0.00,347.000000,,2013-01-11 21:53:00,
2013-01-11 14:01:00,28.0,27.0,-100.00,NE,40,0.0,2.0,96,0.00,,,0.00,386.000000,,2013-01-11 22:01:00,
2013-01-11 14:23:00,28.0,27.0,-100.00,NE,40,0.0,2.0,96,0.00,,,0.00,386.000000,,2013-01-11 22:23:00,
2013-01-11 14:33:00,28.0,27.0,-100.00,NE,40,0.0,2.0,96,0.00,,,0.00,386.000000,,2013-01-11 22:33:00,
2013-01-11 14:42:00,28.0,27.0,-100.00,NE,40,0.0,2.0,96,0.00,,,0.00,386.000000,,2013-01-11 22:42:00,
2013-01-11 14:53:00,28.0,27.0,-100.00,NE,40,0.0,2.0,96,0.00,,,0.00,386.000000,,2013-01-11 22:53:00,
2013-01-11 15:01:00,28.0,27.0,-100.00,ENE,66,0.0,0.0,96,0.00,,,0.00,406.000000,,2013-01-11 23:01:00,
2013-01-11 15:23:00,28.0,27.0,-100.00,ENE,66,0.0,0.0,96,0.00,,,0.00,406.000000,,2013-01-11 23:23:00,
2013-01-11 15:33:00,28.0,27.0,-100.00,ENE,66,0.0,0.0,96,0.00,,,0.00,406.000000,,2013-01-11 23:33:00,
2013-01-11 15:43:00,28.0,27.0,-100.00,ENE,66,0.0,0.0,96,0.00,,,0.00,406.000000,,2013-01-11 23:43:00,
2013-01-11 15:53:00,28.0,27.0,-100.00,ENE,66,0.0,0.0,96,0.00,,,0.00,406.000000,,2013-01-11 23:53:00,
2013-01-11 16:01:00,29.0,28.0,-100.00,NE,43,0.0,0.0,96,0.00,,,0.00,324.000000,,2013-01-12 00:01:00,
2013-01-11 16:33:00,29.0,28.0,-100.00,NE,43,0.0,0.0,96,0.00,,,0.00,324.000000,,2013-01-12 00:33:00,
2013-01-11 16:43:00,29.0,28.0,-100.00,NE,43,0.0,0.0,96,0.00,,,0.00,324.000000,,2013-01-12 00:43:00,
2013-01-11 16:53:00,29.0,28.0,-100.00,NE,43,0.0,0.0,96,0.00,,,0.00,324.000000,,2013-01-12 00:53:00,
2013-01-11 17:01:00,26.0,25.0,-100.00,NE,37,0.0,0.0,97,0.00,,,0.00,183.000000,,2013-01-12 01:01:00,
2013-01-11 17:33:00,26.0,25.0,-100.00,NE,37,0.0,0.0,97,0.00,,,0.00,183.000000,,2013-01-12 01:33:00,
2013-01-11 17:43:00,26.0,25.0,-100.00,NE,37,0.0,0.0,97,0.00,,,0.00,183.000000,,2013-01-12 01:43:00,
2013-01-11 17:52:00,26.0,25.0,-100.00,NE,37,0.0,0.0,97,0.00,,,0.00,183.000000,,2013-01-12 01:52:00,
2013-01-11 18:01:00,23.0,23.0,-100.00,NE,34,0.0,0.0,98,0.00,,,0.00,32.000000,,2013-01-12 02:01:00,
2013-01-11 18:33:00,23.0,23.0,-100.00,NE,34,0.0,0.0,98,0.00,,,0.00,32.000000,,2013-01-12 02:33:00,
2013-01-11 18:43:00,23.0,23.0,-100.00,NE,34,0.0,0.0,98,0.00,,,0.00,32.000000,,2013-01-12 02:43:00,
2013-01-11 18:53:00,23.0,23.0,-100.00,NE,34,0.0,0.0,98,0.00,,,0.00,32.000000,,2013-01-12 02:53:00,
2013-01-11 19:01:00,22.0,22.0,-100.00,NE,34,0.0,0.0,98,0.00,,,0.00,0.000000,,2013-01-12 03:01:00,
2013-01-11 19:33:00,22.0,22.0,-100.00,NE,34,0.0,0.0,98,0.00,,,0.00,0.000000,,2013-01-12 03:33:00,
2013-01-11 19:43:00,22.0,22.0,-100.00,NE,34,0.0,0.0,98,0.00,,,0.00,0.000000,,2013-01-12 03:43:00,
2013-01-11 19:53:00,22.0,22.0,-100.00,NE,34,0.0,0.0,98,0.00,,,0.00,0.000000,,2013-01-12 03:53:00,
2013-01-11 20:01:00,22.0,22.0,-100.00,NNE,27,0.0,0.0,98,0.00,,,0.00,0.000000,,2013-01-12 04:01:00,
2013-01-11 20:22:00,22.0,22.0,-100.00,NNE,27,0.0,0.0,98,0.00,,,0.00,0.000000,,2013-01-12 04:22:00,
2013-01-11 20:32:00,22.0,22.0,-100.00,NNE,27,0.0,0.0,98,0.00,,,0.00,0.000000,,2013-01-12 04:32:00,
2013-01-11 20:42:00,22.0,22.0,-100.00,NNE,27,0.0,0.0,98,0.00,,,0.00,0.000000,,2013-01-12 04:42:00,
2013-01-11 20:52:00,22.0,22.0,-100.00,NNE,27,0.0,0.0,98,0.00,,,0.00,0.000000,,2013-01-12 04:52:00,
2013-01-11 21:01:00,23.0,23.0,-100.00,ENE,60,0.0,0.0,98,0.00,,,0.00,0.000000,,2013-01-12 05:01:00,
2013-01-11 21:32:00,23.0,23.0,-100.00,ENE,60,0.0,0.0,98,0.00,,,0.00,0.000000,,2013-01-12 05:32:00,
2013-01-11 21:42:00,23.0,23.0,-100.00,ENE,60,0.0,0.0,98,0.00,,,0.00,0.000000,,2013-01-12 05:42:00,
2013-01-11 21:52:00,23.0,23.0,-100.00,ENE,60,0.0,0.0,98,0.00,,,0.00,0.000000,,2013-01-12 05:52:00,
2013-01-11 22:01:00,23.0,23.0,-100.00,NNE,14,0.0,0.0,98,0.00,,,0.00,0.000000,,2013-01-12 06:01:00,
2013-01-11 22:33:00,23.0,23.0,-100.00,NNE,14,0.0,0.0,98,0.00,,,0.00,0.000000,,2013-01-12 06:33:00,
2013-01-11 22:43:00,23.0,23.0,-100.00,NNE,14,0.0,0.0,98,0.00,,,0.00,0.000000,,2013-01-12 06:43:00,
2013-01-11 22:52:00,23.0,23.0,-100.00,NNE,14,0.0,0.0,98,0.00,,,0.00,0.000000,,2013-01-12 06:52:00,
2013-01-11 23:01:00,23.0,22.0,-100.00,NE,45,0.0,0.0,97,0.00,,,0.00,0.000000,,2013-01-12 07:01:00,
2013-01-11 23:32:00,23.0,22.0,-100.00,NE,45,0.0,0.0,97,0.00,,,0.00,0.000000,,2013-01-12 07:32:00,
2013-01-11 23:42:00,23.0,22.0,-100.00,NE,45,0.0,0.0,97,0.00,,,0.00,0.000000,,2013-01-12 07:42:00,
2013-01-11 23:52:00,23.0,22.0,-100.00,NE,45,0.0,0.0,97,0.00,,,0.00,0.000000,,2013-01-12 07:52:00,